Het weer levert geen direct gevaar op.    Er zijn geen waarschuwingen afgegeven.

Onweer radar Meer informatie blitzortung!


Regen radar Meer informatie rain snow radar



METAR rapporten vliegvelden

   
EHGR - Dalem
Gewijzigd: 02-04-2020 19:55
Bewolking  
Bewolking  
   Wind: WZW 3.6 m/s
Wind: WZW 3.6 m/s
Temperatuur: 9°C
Voelt als: 7°C
Dauwpunt: 2°C
Vochtigheid: 62%
Barometer: 1012 hPa
Bewolking: Bewolking
Zicht: meer dan 10 km
Bewolking: Bewolking 5400 ft
EHGR 021755Z AUTO 24007KT 220V280 9999 OVC054 09/02 Q1012 BLU 27010KT 9999 SCT045 TEMPO BKN040
EHGR - Roosendaal
Gewijzigd: 02-04-2020 19:55
Bewolking  
Bewolking  
   Wind: WZW 3.6 m/s
Wind: WZW 3.6 m/s
Temperatuur: 9°C
Voelt als: 7°C
Dauwpunt: 2°C
Vochtigheid: 62%
Barometer: 1012 hPa
Bewolking: Bewolking
Zicht: meer dan 10 km
Bewolking: Bewolking 5400 ft
EHGR 021755Z AUTO 24007KT 220V280 9999 OVC054 09/02 Q1012 BLU 27010KT 9999 SCT045 TEMPO BKN040
EHRD - Rotterdam
Gewijzigd: 02-04-2020 19:55
Grotendeels bewolkt  
Grotendeels bewolkt  
   Wind: WZW 7.2 m/s
Wind: WZW 7.2 m/s
Temperatuur: 9°C
Voelt als: 6°C
Dauwpunt: 4°C
Vochtigheid: 71%
Barometer: 1011 hPa
Bewolking: Grotendeels bewolkt
Zicht: meer dan 10 km
Bewolking: Grotendeels bewolkt 3800 ft,
Grotendeels bewolkt 4300 ft,
Grotendeels bewolkt 4700 ft
EHRD 021755Z AUTO 24014KT 210V270 9999 BKN038 BKN043 BKN047 09/04 Q1011 NOSIG
EHLW - Urk
Gewijzigd: 02-04-2020 19:55
Bewolking  
Bewolking  
   Wind: WZW 9.8 m/s
Wind: WZW 9.8 m/s
Temperatuur: 8°C
Voelt als: 4°C
Dauwpunt: 6°C
Vochtigheid: 87%
Barometer: 1008 hPa
Bewolking: Bewolking
Zicht: meer dan 10 km
Bewolking: Licht bewolkt 5800 ft,
Bewolking 6500 ft
EHLW 021755Z AUTO 25019KT 9999 FEW058 OVC065 08/06 Q1008 BLU
EHDL - Veenendaal
Gewijzigd: 02-04-2020 19:55
Bewolking  
Bewolking  
   Wind: ZW 5.7 m/s
Wind: ZW 5.7 m/s
Temperatuur: 9°C
Voelt als: 6°C
Dauwpunt: 3°C
Vochtigheid: 66%
Barometer: 1010 hPa
Bewolking: Bewolking
Zicht: meer dan 10 km
Bewolking: Gedeeltelijk bewolkt 2700 ft,
Grotendeels bewolkt 3100 ft,
Bewolking 3600 ft
EHDL 021755Z AUTO 23011KT 170V300 9999 SCT027 BKN031 OVC036 09/03 Q1010 BLU
EHRD - Vianen
Gewijzigd: 02-04-2020 19:55
Grotendeels bewolkt  
Grotendeels bewolkt  
   Wind: WZW 7.2 m/s
Wind: WZW 7.2 m/s
Temperatuur: 9°C
Voelt als: 6°C
Dauwpunt: 4°C
Vochtigheid: 71%
Barometer: 1011 hPa
Bewolking: Grotendeels bewolkt
Zicht: meer dan 10 km
Bewolking: Grotendeels bewolkt 3800 ft,
Grotendeels bewolkt 4300 ft,
Grotendeels bewolkt 4700 ft
EHRD 021755Z AUTO 24014KT 210V270 9999 BKN038 BKN043 BKN047 09/04 Q1011 NOSIG

Script ontwikkeld door  Saratoga-weather.org Aangepast voor de template door  Weerstation Leuven

U vindt ons ook hier:

Het Weer Aktueel

UK Metoffice

European Weather Network

WeatherCloud

Weather Underground

AWEKAS

Citizen Weather Observer Program (CWOP)

HAMweather, WeatherForYou, PWS Weather

Apparatuur in gebruik:

Weerstation
Davis VP2 weatherstation

Weerprogramma
Meteobridge

Weercomputer
Asus WL_330N3G

Davis VP2 weatherstation

Meteobridge

Asus WL_330N3G